Big Rapids, MI (49307)

7:34 AM EDT on May 28, 2015 (GMT -0400)
The Spedowski's | | Change Station
CLOSE
Current Station
Personal Weather Station
Location: Big Rapids, MI
Elevation: 951 ft
Nearby Weather Stations

Elev 951 ft 43.71 °N, 85.48 °W | Updated 0 second ago

Partly Cloudy
Partly Cloudy
56.3 °F
Feels Like 56.3 °F
N
0.0
Wind Variable Wind from NW
Gusts 2.0 mph

Today
High -- | Low -- °F
--% Chance of Precip.
Yesterday
High -- | Low -- °F
Precip. -- in
6:05 AM 9:13 PM
Waxing Gibbous, 75% visible
Pressure 30.19 in
Visibility 10.0 miles
Clouds Clear
Dew Point 55 °F
Humidity 94%
Rainfall 0.00 in
Snow Depth Not available.
UV 1 out of 12
Pollen 9.10 out of 12
Air Quality Not available.
Flu Activity Sporadic
METAR KRQB 281115Z AUTO 00000KT 10SM CLR 13/11 A3019 RMK AO2 T01280113

More Conditions Fewer Conditions

Pressure 30.19 in
Visibility 10.0 miles
Clouds Clear
Dew Point 55 °F
Humidity 94%
Rainfall 0.00 in
Snow Depth Not available.
UV 1 out of 12
Pollen 9.10 out of 12
Air Quality Not available.
Flu Activity Sporadic
METAR KRQB 281115Z AUTO 00000KT 10SM CLR 13/11 A3019 RMK AO2 T01280113

More Conditions Fewer Conditions

10-Day Weather Forecast

Almanac

Astronomy

May. 28, 2015 Rise Set
Actual Time
Civil Twilight
Nautical Twilight
Astronomical Twilight
Moon
Length of Visible Light
Length of Day
Tomorrow will be .
, % of the Moon is Illuminated

Today's Extremes

State Highs State Lows

Community

WunderPhotos

Upload Photos

1,824,954 photos uploaded!

WunderBlogs® & News

Nearby

Air Quality

  Air Quality AQ Index Pollutant
Not available.

Snow Depth

Station Depth Elevation

Earthquake Activity

City Distance Mag. Time & Date
Minimum magnitude displayed is 2.5.

Coastal Water Temperatures

Place Temperature

Stations

Nearby Weather Stations

Station Location Temp. Windchill Dew Point Humidity Wind Precip. Elev Updated Type